Página principal
METAR-TAF:

METAR-TAF

Aeroportos :

Atyrau, Cazaquistão

latitude: 47-07-19N, longitude: 051-49-17E, altura: -22 m

Observação actual do tempo

O boletim foi feito há 19 minutos, às 02:30 UTC
Vento 6 kt de nor-noroeste
Temperatura -2°C
Humidade 86%
Pressão 1022 hPa
Visibilidade 10 km ou mais
sem nuvens abaixo de 1500 metros e sem cumulonimbus

METAR: UATG 190230Z 33003MPS CAVOK M02/M04 Q1022 R32/CLRD70 NOSIG RMK QFE768/1024

Hora: 08:49 (02:49 UTC)

Previsão

O boletim foi feito há 3 horas e 47 minutos, às 23:02 UTC
Previsão válida de 19 às 00 UTC a 19 às 24 UTC
Vento 10 kt de norte
Visibilidade 10 km ou mais
Nuvens dispersasa uma altura de 3300 ft, Cumulonimbus.
Tornando-se
de 19 às 06 UTC a 19 às 08 UTC
Vento 19 kt de nor-nordeste
Tornando-se
de 19 às 14 UTC a 19 às 16 UTC
Vento 6 kt com direcção variável

TAF: UATG 182302Z 1900/1924 36005MPS 9999 SCT033CB TX08/1912Z TNM04/1903Z BECMG 1906/1908 03010MPS BECMG 1914/1916 VRB03MPS

Observações e previsões do tempo de mais de 4000 aeroportos (mensagens METAR e TAF).

As estações disponíveis são os pontos amarelos e vermelhos sobre o mapa.

Mova o rato sobre o mapa para ver o nome da estação.

Depois clique no ponto para visualizar as observações e previsões meteorológicas.

Para alterar o mapa : clique nos botões verdes com uma cruz preta para aumentar o zoom; no botão verde com uma pitada de zoom; ou nas setas verdes para mapas adjacentes.


METAR-TAF: